KLEX/LEX METAR and TAF weather

Enter ICAO airport designator
Station Type Date Time Source
KLEX METAR 2022/06/28 23:54 UTC NOAA

KLEX 282354Z 04005KT 10SM CLR 24/09 A3020 RMK AO2 SLP220 T02390089 10278 20233 55003


Station Type Date Time Source
KLEX Decoded METAR 2022/06/28 23:54 UTC NOAA

LEXINGTON BLUE GRASS AIRPORT, KY, United States (KLEX) 38-02N 084-36W 300M
Jun 28, 2022 - 07:54 PM EDT / 2022.06.28 2354 UTC
Wind: from the NE (040 degrees) at 6 MPH (5 KT):0
Visibility: 10 mile(s):0
Sky conditions: clear
Temperature: 75.0 F (23.9 C)
Dew Point: 48.0 F (8.9 C)
Relative Humidity: 38%
Pressure (altimeter): 30.2 in. Hg (1022 hPa)
Pressure tendency: 0.01 inches (0.3 hPa) lower than three hours ago
ob: KLEX 282354Z 04005KT 10SM CLR 24/09 A3020 RMK AO2 SLP220 T02390089 10278 20233 55003
cycle: 0

Station Type Date Time Source
KLEX TAF 2022/06/28 18:22 UTC NOAA

TAF KLEX 281720Z 2818/2918 03006KT P6SM FEW120 BKN200
FM290000 VRB03KT P6SM SKC

Example: see airport list